createdAt,value
2019-04-10T00:00:51.119Z,0.00
2019-04-10T00:01:49.776Z,0.00
2019-04-10T00:02:50.112Z,0.00
2019-04-10T00:03:50.400Z,0.00
2019-04-10T00:04:49.717Z,0.00
2019-04-10T00:05:50.019Z,0.00
2019-04-10T00:06:50.073Z,0.00
2019-04-10T00:07:50.030Z,0.00
2019-04-10T00:08:50.575Z,0.00
2019-04-10T00:09:49.660Z,0.00
2019-04-10T00:10:49.652Z,0.00
2019-04-10T00:11:49.679Z,0.00
2019-04-10T00:12:49.800Z,0.00
2019-04-10T00:13:49.627Z,0.00
2019-04-10T00:14:50.456Z,0.00
2019-04-10T00:15:50.710Z,0.00
2019-04-10T00:16:49.589Z,0.00
2019-04-10T00:17:49.611Z,0.00
2019-04-10T00:18:50.549Z,0.00
2019-04-10T00:19:49.560Z,0.00
2019-04-10T00:20:49.547Z,0.00
2019-04-10T00:21:49.536Z,0.00
2019-04-10T00:22:50.610Z,0.00
2019-04-10T00:23:49.519Z,0.00
2019-04-10T00:24:50.477Z,0.00
2019-04-10T00:25:49.491Z,0.00
2019-04-10T00:26:50.094Z,0.00
2019-04-10T00:27:50.600Z,0.00
2019-04-10T00:28:49.775Z,0.00
2019-04-10T00:29:49.451Z,0.00
2019-04-10T00:30:49.470Z,0.00
2019-04-10T00:31:49.431Z,0.00
2019-04-10T00:32:49.446Z,0.00
2019-04-10T00:33:49.412Z,0.00
2019-04-10T00:34:49.736Z,0.00
2019-04-10T00:35:49.870Z,0.00
2019-04-10T00:36:49.376Z,0.00
2019-04-10T00:37:49.395Z,0.00
2019-04-10T00:38:50.318Z,0.00
2019-04-10T00:39:49.350Z,0.00
2019-04-10T00:40:49.947Z,0.00
2019-04-10T00:41:49.391Z,0.00
2019-04-10T00:42:49.586Z,0.00
2019-04-10T00:43:49.314Z,0.00
2019-04-10T00:44:50.088Z,0.00
2019-04-10T00:45:49.436Z,0.00
2019-04-10T00:46:49.272Z,0.00
2019-04-10T00:47:49.287Z,0.00
2019-04-10T00:48:50.230Z,0.00
2019-04-10T00:49:50.282Z,0.00
2019-04-10T00:50:49.233Z,0.00
2019-04-10T00:51:49.990Z,0.00
2019-04-10T00:52:49.392Z,0.00
2019-04-10T00:53:49.773Z,0.00
2019-04-10T00:54:49.187Z,0.00
2019-04-10T00:55:50.206Z,0.00
2019-04-10T00:56:49.173Z,0.00
2019-04-10T00:57:49.801Z,0.00
2019-04-10T00:58:49.161Z,0.00
2019-04-10T00:59:49.142Z,0.00
2019-04-10T01:00:50.282Z,0.00
2019-04-10T01:01:49.137Z,0.00
2019-04-10T01:02:49.207Z,0.00
2019-04-10T01:03:50.729Z,0.00
2019-04-10T01:04:49.114Z,0.00
2019-04-10T01:05:49.229Z,0.00
2019-04-10T01:06:49.060Z,0.00
2019-04-10T01:07:49.075Z,0.00
2019-04-10T01:08:49.040Z,0.00
2019-04-10T01:09:49.905Z,0.00
2019-04-10T01:10:49.020Z,0.00
2019-04-10T01:11:49.750Z,0.00
2019-04-10T01:12:49.157Z,0.00
2019-04-10T01:13:50.124Z,0.00
2019-04-10T01:14:49.785Z,0.00
2019-04-10T01:15:49.091Z,0.00
2019-04-10T01:16:49.432Z,0.00
2019-04-10T01:17:48.978Z,0.00
2019-04-10T01:18:48.939Z,0.00
2019-04-10T01:19:48.936Z,0.00
2019-04-10T01:20:48.914Z,0.00
2019-04-10T01:21:48.906Z,0.00
2019-04-10T01:22:49.754Z,0.00
2019-04-10T01:23:49.125Z,0.00
2019-04-10T01:24:48.878Z,0.00
2019-04-10T01:25:48.875Z,0.00
2019-04-10T01:26:49.627Z,0.00
2019-04-10T01:27:49.955Z,0.00
2019-04-10T01:28:49.189Z,0.00
2019-04-10T01:29:49.599Z,0.00
2019-04-10T01:30:48.807Z,0.00
2019-04-10T01:31:48.795Z,0.00
2019-04-10T01:32:48.789Z,0.00
2019-04-10T01:33:49.245Z,0.00
2019-04-10T01:34:49.706Z,0.00
2019-04-10T01:35:48.851Z,0.00
2019-04-10T01:36:48.756Z,0.00
2019-04-10T01:37:54.761Z,0.00
2019-04-10T01:38:49.760Z,0.00
2019-04-10T01:39:48.728Z,0.00
2019-04-10T01:40:48.705Z,0.00
2019-04-10T01:41:48.691Z,0.00
2019-04-10T01:43:02.484Z,0.00
2019-04-10T01:43:49.698Z,0.00
2019-04-10T01:44:49.037Z,0.00
2019-04-10T01:45:49.509Z,0.00
2019-04-10T01:46:48.709Z,0.00
2019-04-10T01:47:48.632Z,0.00
2019-04-10T01:48:49.116Z,0.00
2019-04-10T01:49:48.616Z,0.00
2019-04-10T01:50:48.651Z,0.00
2019-04-10T01:51:49.692Z,0.00
2019-04-10T01:52:49.166Z,0.00
2019-04-10T01:53:48.591Z,0.00
2019-04-10T01:54:49.237Z,0.00
2019-04-10T01:55:49.280Z,0.00
2019-04-10T01:56:48.525Z,0.00
2019-04-10T01:57:48.544Z,0.00
2019-04-10T01:58:49.516Z,0.00
2019-04-10T01:59:48.509Z,0.00
2019-04-10T02:00:48.494Z,0.00
2019-04-10T02:01:48.478Z,0.00
2019-04-10T02:02:49.539Z,0.00
2019-04-10T02:03:48.484Z,0.00
2019-04-10T02:04:51.322Z,0.00
2019-04-10T02:05:49.183Z,0.00
2019-04-10T02:06:49.517Z,0.00
2019-04-10T02:07:59.426Z,0.00
2019-04-10T02:08:49.963Z,0.00
2019-04-10T02:09:48.397Z,0.00
2019-04-10T02:10:48.387Z,0.00
2019-04-10T02:11:48.378Z,0.00
2019-04-10T02:12:48.368Z,0.00
2019-04-10T02:13:48.379Z,0.00
2019-04-10T02:14:48.872Z,0.00
2019-04-10T02:15:48.332Z,0.00
2019-04-10T02:16:49.350Z,0.00
2019-04-10T02:17:48.675Z,0.00
2019-04-10T02:18:48.331Z,0.00
2019-04-10T02:19:48.291Z,0.00
2019-04-10T02:20:49.346Z,0.00
2019-04-10T02:21:48.269Z,0.00
2019-04-10T02:22:48.259Z,0.00
2019-04-10T02:23:48.292Z,0.00
2019-04-10T02:24:49.312Z,0.00
2019-04-10T02:25:49.307Z,0.00
2019-04-10T02:26:48.216Z,0.00
2019-04-10T02:27:48.772Z,0.00
2019-04-10T02:28:48.196Z,0.00
2019-04-10T02:29:48.210Z,0.00
2019-04-10T02:30:48.177Z,0.00
2019-04-10T02:31:48.543Z,0.00
2019-04-10T02:32:50.361Z,0.00
2019-04-10T02:33:49.651Z,0.00
2019-04-10T02:34:49.176Z,0.00
2019-04-10T02:35:48.383Z,0.00
2019-04-10T02:36:48.827Z,0.00
2019-04-10T02:37:52.729Z,0.00
2019-04-10T02:39:01.954Z,0.00
2019-04-10T02:39:52.860Z,0.00
2019-04-10T02:40:50.075Z,0.00
2019-04-10T02:41:48.056Z,0.00
2019-04-10T02:42:49.292Z,0.00
2019-04-10T02:43:48.074Z,0.00
2019-04-10T02:44:48.457Z,0.00
2019-04-10T02:45:49.343Z,0.00
2019-04-10T02:46:49.766Z,0.00
2019-04-10T02:47:48.001Z,0.00
2019-04-10T02:48:47.989Z,0.00
2019-04-10T02:49:49.289Z,0.00
2019-04-10T02:50:49.313Z,0.00
2019-04-10T02:51:49.754Z,0.00
2019-04-10T02:52:50.321Z,0.00
2019-04-10T02:53:48.167Z,0.00
2019-04-10T02:54:49.069Z,0.00
2019-04-10T02:55:49.340Z,0.00
2019-04-10T02:56:49.529Z,0.00
2019-04-10T02:57:47.895Z,0.00
2019-04-10T02:58:49.201Z,0.00
2019-04-10T02:59:47.969Z,0.00
2019-04-10T03:00:48.762Z,0.00
2019-04-10T03:01:49.600Z,0.00
2019-04-10T03:02:49.523Z,0.00
2019-04-10T03:03:47.829Z,0.00
2019-04-10T03:04:49.092Z,0.00
2019-04-10T03:05:48.801Z,0.00
2019-04-10T03:06:47.950Z,0.00
2019-04-10T03:07:48.305Z,0.00
2019-04-10T03:09:02.400Z,0.00
2019-04-10T03:10:00.515Z,0.00
2019-04-10T03:10:53.368Z,0.00
2019-04-10T03:11:49.839Z,0.00
2019-04-10T03:12:48.427Z,0.00
2019-04-10T03:13:48.975Z,0.00
2019-04-10T03:14:49.385Z,0.00
2019-04-10T03:15:48.203Z,0.00
2019-04-10T03:16:47.927Z,0.00
2019-04-10T03:17:48.343Z,0.00
2019-04-10T03:18:47.670Z,0.00
2019-04-10T03:19:47.824Z,0.00
2019-04-10T03:20:48.745Z,0.00
2019-04-10T03:21:47.640Z,0.00
2019-04-10T03:22:47.626Z,0.00
2019-04-10T03:23:47.626Z,0.00
2019-04-10T03:24:48.510Z,0.00
2019-04-10T03:25:47.606Z,0.00
2019-04-10T03:26:47.886Z,0.00
2019-04-10T03:27:47.581Z,0.00
2019-04-10T03:28:47.567Z,0.00
2019-04-10T03:29:48.463Z,0.00
2019-04-10T03:30:49.365Z,0.00
2019-04-10T03:31:48.222Z,0.00
2019-04-10T03:32:53.774Z,0.00
2019-04-10T03:33:51.783Z,0.00
2019-04-10T03:34:48.499Z,0.00
2019-04-10T03:35:48.107Z,0.00
2019-04-10T03:36:47.629Z,0.00
2019-04-10T03:37:48.646Z,0.00
2019-04-10T03:38:57.763Z,0.00
2019-04-10T03:39:48.965Z,0.00
2019-04-10T03:40:48.035Z,0.00
2019-04-10T03:41:48.389Z,0.00
2019-04-10T03:42:47.483Z,0.00
2019-04-10T03:43:47.425Z,0.00
2019-04-10T03:44:47.404Z,0.00
2019-04-10T03:45:47.411Z,0.00
2019-04-10T03:46:47.379Z,0.00
2019-04-10T03:47:47.527Z,0.00
2019-04-10T03:48:47.418Z,0.00
2019-04-10T03:49:47.344Z,0.00
2019-04-10T03:50:47.938Z,0.00
2019-04-10T03:51:47.324Z,0.00
2019-04-10T03:52:47.574Z,0.00
2019-04-10T03:53:47.302Z,0.00
2019-04-10T03:54:48.153Z,0.00
2019-04-10T03:55:47.371Z,0.00
2019-04-10T03:56:47.883Z,0.00
2019-04-10T03:57:47.265Z,0.00
2019-04-10T03:58:47.544Z,0.00
2019-04-10T03:59:47.590Z,0.00
2019-04-10T04:00:47.262Z,0.00
2019-04-10T04:01:47.294Z,0.00
2019-04-10T04:02:48.144Z,0.00
2019-04-10T04:03:47.195Z,0.00
2019-04-10T04:04:48.040Z,0.00
2019-04-10T04:05:47.206Z,0.00
2019-04-10T04:06:48.153Z,0.00
2019-04-10T04:07:47.157Z,0.00
2019-04-10T04:08:49.027Z,0.00
2019-04-10T04:09:48.204Z,0.00
2019-04-10T04:10:47.255Z,0.00
2019-04-10T04:11:47.941Z,0.00
2019-04-10T04:12:47.102Z,0.00
2019-04-10T04:13:47.975Z,0.00
2019-04-10T04:14:47.113Z,0.00
2019-04-10T04:15:47.175Z,0.00
2019-04-10T04:16:47.135Z,0.00
2019-04-10T04:17:47.051Z,0.00
2019-04-10T04:18:47.041Z,0.00
2019-04-10T04:19:47.030Z,0.00
2019-04-10T04:20:47.553Z,0.00
2019-04-10T04:21:48.071Z,0.00
2019-04-10T04:22:47.529Z,0.00
2019-04-10T04:23:46.987Z,0.00
2019-04-10T04:24:46.995Z,0.00
2019-04-10T04:25:46.994Z,0.00
2019-04-10T04:26:47.016Z,0.00
2019-04-10T04:27:46.963Z,0.00
2019-04-10T04:28:46.936Z,0.00
2019-04-10T04:29:47.551Z,0.00
2019-04-10T04:30:47.083Z,0.00
2019-04-10T04:31:46.905Z,5.62
2019-04-10T04:32:46.891Z,5.62
2019-04-10T04:33:46.990Z,5.62
2019-04-10T04:34:47.437Z,5.62
2019-04-10T04:35:47.416Z,5.62
2019-04-10T04:36:48.863Z,5.62
2019-04-10T04:37:46.845Z,11.25
2019-04-10T04:38:46.826Z,11.25
2019-04-10T04:39:47.535Z,11.25
2019-04-10T04:40:46.967Z,11.25
2019-04-10T04:41:47.810Z,16.88
2019-04-10T04:42:47.141Z,16.88
2019-04-10T04:43:47.666Z,16.88
2019-04-10T04:44:47.766Z,22.50
2019-04-10T04:45:46.783Z,22.50
2019-04-10T04:46:46.888Z,22.50
2019-04-10T04:47:46.754Z,28.12
2019-04-10T04:48:47.434Z,28.12
2019-04-10T04:49:46.847Z,28.12
2019-04-10T04:50:47.015Z,33.75
2019-04-10T04:51:46.747Z,33.75
2019-04-10T04:52:46.787Z,39.38
2019-04-10T04:53:46.724Z,39.38
2019-04-10T04:54:47.696Z,45.00
2019-04-10T04:55:47.041Z,45.00
2019-04-10T04:56:46.635Z,50.62
2019-04-10T04:57:47.112Z,50.62
2019-04-10T04:58:47.583Z,56.25
2019-04-10T04:59:46.604Z,56.25
2019-04-10T05:00:46.633Z,61.88
2019-04-10T05:01:46.848Z,61.88
2019-04-10T05:02:47.038Z,67.50
2019-04-10T05:03:46.562Z,73.12
2019-04-10T05:04:46.553Z,73.12
2019-04-10T05:05:46.570Z,78.75
2019-04-10T05:06:46.535Z,78.75
2019-04-10T05:07:56.381Z,84.38
2019-04-10T05:08:48.558Z,90.00
2019-04-10T05:09:46.500Z,90.00
2019-04-10T05:10:47.441Z,95.62
2019-04-10T05:11:46.831Z,95.62
2019-04-10T05:12:46.462Z,101.25
2019-04-10T05:13:46.798Z,106.88
2019-04-10T05:14:46.446Z,106.88
2019-04-10T05:15:46.455Z,112.50
2019-04-10T05:16:46.421Z,112.50
2019-04-10T05:17:47.075Z,118.12
2019-04-10T05:18:46.406Z,123.75
2019-04-10T05:19:46.856Z,123.75
2019-04-10T05:20:50.268Z,123.75
2019-04-10T05:21:46.368Z,129.38
2019-04-10T05:22:46.354Z,129.38
2019-04-10T05:23:47.008Z,135.00
2019-04-10T05:24:46.739Z,135.00
2019-04-10T05:25:46.348Z,140.62
2019-04-10T05:26:46.952Z,146.25
2019-04-10T05:27:46.923Z,146.25
2019-04-10T05:28:46.675Z,151.88
2019-04-10T05:29:47.148Z,157.50
2019-04-10T05:30:46.330Z,157.50
2019-04-10T05:31:46.795Z,163.12
2019-04-10T05:32:57.720Z,168.75
2019-04-10T05:33:47.175Z,168.75
2019-04-10T05:34:46.687Z,174.38
2019-04-10T05:35:46.250Z,180.00
2019-04-10T05:36:47.002Z,180.00
2019-04-10T05:37:46.215Z,185.62
2019-04-10T05:38:46.190Z,185.62
2019-04-10T05:39:50.628Z,191.25
2019-04-10T05:40:47.195Z,191.25
2019-04-10T05:41:47.094Z,196.88
2019-04-10T05:42:47.183Z,196.88
2019-04-10T05:43:46.803Z,202.50
2019-04-10T05:44:46.129Z,202.50
2019-04-10T05:45:46.499Z,208.12
2019-04-10T05:46:46.541Z,213.75
2019-04-10T05:47:46.593Z,213.75
2019-04-10T05:48:46.249Z,219.38
2019-04-10T05:49:47.114Z,219.38
2019-04-10T05:50:54.914Z,225.00
2019-04-10T05:51:47.922Z,225.00
2019-04-10T05:52:46.052Z,225.00
2019-04-10T05:53:47.012Z,230.62
2019-04-10T05:54:47.209Z,230.62
2019-04-10T05:55:47.025Z,236.25
2019-04-10T05:56:46.972Z,236.25
2019-04-10T05:57:45.988Z,241.88
2019-04-10T05:58:46.912Z,241.88
2019-04-10T05:59:45.995Z,247.50
2019-04-10T06:00:47.075Z,247.50
2019-04-10T06:01:45.952Z,253.12
2019-04-10T06:02:46.051Z,253.12
2019-04-10T06:03:47.136Z,258.75
2019-04-10T06:04:45.921Z,264.38
2019-04-10T06:05:46.534Z,264.38
2019-04-10T06:06:46.482Z,264.38
2019-04-10T06:07:45.886Z,270.00
2019-04-10T06:08:46.976Z,275.62
2019-04-10T06:09:54.070Z,275.62
2019-04-10T06:10:47.804Z,281.25
2019-04-10T06:11:47.240Z,281.25
2019-04-10T06:12:46.733Z,286.88
2019-04-10T06:13:45.902Z,292.50
2019-04-10T06:14:46.324Z,292.50
2019-04-10T06:15:45.824Z,298.12
2019-04-10T06:16:45.796Z,298.12
2019-04-10T06:17:46.829Z,303.75
2019-04-10T06:18:45.801Z,303.75
2019-04-10T06:19:46.798Z,309.38
2019-04-10T06:20:45.779Z,309.38
2019-04-10T06:21:46.223Z,309.38
2019-04-10T06:22:45.735Z,315.00
2019-04-10T06:23:45.715Z,315.00
2019-04-10T06:24:46.759Z,320.62
2019-04-10T06:25:45.883Z,320.62
2019-04-10T06:26:45.957Z,326.25
2019-04-10T06:27:45.677Z,331.88
2019-04-10T06:28:46.509Z,331.88
2019-04-10T06:29:46.266Z,331.88
2019-04-10T06:30:45.692Z,337.50
2019-04-10T06:31:45.633Z,337.50
2019-04-10T06:32:45.621Z,337.50
2019-04-10T06:33:46.431Z,337.50
2019-04-10T06:34:46.048Z,343.12
2019-04-10T06:35:46.829Z,343.12
2019-04-10T06:36:45.904Z,343.12
2019-04-10T06:37:46.399Z,343.12
2019-04-10T06:38:45.559Z,348.75
2019-04-10T06:39:46.419Z,354.38
2019-04-10T06:40:46.089Z,354.38
2019-04-10T06:41:46.662Z,360.00
2019-04-10T06:42:51.638Z,360.00
2019-04-10T06:43:47.463Z,365.62
2019-04-10T06:44:46.048Z,365.62
2019-04-10T06:45:46.166Z,371.25
2019-04-10T06:46:46.505Z,371.25
2019-04-10T06:47:46.546Z,371.25
2019-04-10T06:48:45.450Z,376.88
2019-04-10T06:49:45.688Z,376.88
2019-04-10T06:50:45.979Z,382.50
2019-04-10T06:51:45.447Z,382.50
2019-04-10T06:52:45.413Z,382.50
2019-04-10T06:53:45.400Z,388.12
2019-04-10T06:54:45.390Z,388.12
2019-04-10T06:55:45.379Z,393.75
2019-04-10T06:56:47.920Z,393.75
2019-04-10T06:57:49.166Z,399.38
2019-04-10T06:58:46.352Z,399.38
2019-04-10T06:59:46.102Z,405.00
2019-04-10T07:00:49.740Z,405.00
2019-04-10T07:01:51.417Z,410.62
2019-04-10T07:02:46.377Z,410.62
2019-04-10T07:03:54.587Z,416.25
2019-04-10T07:04:53.083Z,421.88
2019-04-10T07:06:01.348Z,427.50
2019-04-10T07:06:57.936Z,433.12
2019-04-10T07:07:51.880Z,433.12
2019-04-10T07:08:48.655Z,438.75
2019-04-10T07:09:45.434Z,438.75
2019-04-10T07:10:52.063Z,444.38
2019-04-10T07:11:47.915Z,450.00
2019-04-10T07:12:46.200Z,455.62
2019-04-10T07:13:45.186Z,466.88
2019-04-10T07:14:48.305Z,545.62
2019-04-10T07:15:46.928Z,759.38
2019-04-10T07:16:45.346Z,905.62
2019-04-10T07:17:45.143Z,933.75
2019-04-10T07:18:48.571Z,928.12
2019-04-10T07:19:45.997Z,922.50
2019-04-10T07:20:46.159Z,961.88
2019-04-10T07:21:45.126Z,967.50
2019-04-10T07:22:46.862Z,956.25
2019-04-10T07:23:45.080Z,995.62
2019-04-10T07:24:46.123Z,995.62
2019-04-10T07:25:46.898Z,1006.88
2019-04-10T07:26:47.604Z,1018.12
2019-04-10T07:27:45.916Z,1040.62
2019-04-10T07:28:47.215Z,1051.88
2019-04-10T07:29:45.020Z,1040.62
2019-04-10T07:30:45.672Z,1029.38
2019-04-10T07:31:45.022Z,1051.88
2019-04-10T07:32:48.632Z,1068.75
2019-04-10T07:33:48.896Z,1096.88
2019-04-10T07:34:46.731Z,1141.88
2019-04-10T07:35:44.953Z,1113.75
2019-04-10T07:36:46.331Z,1108.12
2019-04-10T07:37:44.934Z,1186.88
2019-04-10T07:38:44.924Z,1215.00
2019-04-10T07:39:45.122Z,1215.00
2019-04-10T07:40:45.017Z,1231.88
2019-04-10T07:41:45.267Z,1231.88
2019-04-10T07:42:44.883Z,1231.88
2019-04-10T07:43:44.870Z,1226.25
2019-04-10T07:44:44.857Z,1271.25
2019-04-10T07:45:44.855Z,1305.00
2019-04-10T07:46:44.865Z,1299.38
2019-04-10T07:47:44.829Z,1276.88
2019-04-10T07:48:45.556Z,1254.38
2019-04-10T07:49:44.804Z,1260.00
2019-04-10T07:50:46.942Z,1282.50
2019-04-10T07:51:47.248Z,1254.38
2019-04-10T07:52:45.846Z,1293.75
2019-04-10T07:53:44.778Z,1338.75
2019-04-10T07:54:45.153Z,1310.62
2019-04-10T07:55:57.539Z,1350.00
2019-04-10T07:56:45.773Z,1338.75
2019-04-10T07:57:47.313Z,1305.00
2019-04-10T07:58:44.709Z,1299.38
2019-04-10T07:59:45.328Z,1310.62
2019-04-10T08:00:44.906Z,1316.25
2019-04-10T08:01:44.701Z,1344.38
2019-04-10T08:02:44.845Z,1355.62
2019-04-10T08:03:46.434Z,1366.88
2019-04-10T08:04:45.332Z,1383.75
2019-04-10T08:05:44.634Z,1428.75
2019-04-10T08:06:44.757Z,1445.62
2019-04-10T08:07:45.250Z,1451.25
2019-04-10T08:08:44.828Z,1440.00
2019-04-10T08:09:44.593Z,1440.00
2019-04-10T08:10:45.100Z,1456.88
2019-04-10T08:11:44.860Z,1479.38
2019-04-10T08:12:50.038Z,1501.88
2019-04-10T08:13:45.551Z,1518.75
2019-04-10T08:14:44.545Z,1558.12
2019-04-10T08:15:45.380Z,1586.25
2019-04-10T08:16:45.537Z,1569.38
2019-04-10T08:17:44.584Z,1563.75
2019-04-10T08:18:45.631Z,1586.25
2019-04-10T08:19:45.290Z,1597.50
2019-04-10T08:20:44.625Z,1569.38
2019-04-10T08:21:44.489Z,1563.75
2019-04-10T08:22:44.882Z,1620.00
2019-04-10T08:23:44.658Z,1591.88
2019-04-10T08:24:46.954Z,1580.62
2019-04-10T08:25:44.422Z,1659.38
2019-04-10T08:26:45.111Z,1636.88
2019-04-10T08:27:44.400Z,1625.62
2019-04-10T08:28:45.369Z,1620.00
2019-04-10T08:29:44.380Z,1659.38
2019-04-10T08:30:44.367Z,1642.50
2019-04-10T08:31:44.379Z,1575.00
2019-04-10T08:32:53.511Z,1631.25
2019-04-10T08:33:46.191Z,1681.88
2019-04-10T08:34:44.333Z,1653.75
2019-04-10T08:35:45.441Z,1732.50
2019-04-10T08:36:44.327Z,1760.62
2019-04-10T08:37:45.272Z,1749.38
2019-04-10T08:38:44.566Z,1687.50
2019-04-10T08:39:47.315Z,1693.12
2019-04-10T08:40:44.267Z,1749.38
2019-04-10T08:41:44.279Z,1816.88
2019-04-10T08:42:46.044Z,1766.25
2019-04-10T08:43:44.232Z,1648.12
2019-04-10T08:44:44.543Z,1659.38
2019-04-10T08:45:48.667Z,1755.00
2019-04-10T08:46:46.180Z,1749.38
2019-04-10T08:47:44.292Z,1777.50
2019-04-10T08:48:44.177Z,1850.62
2019-04-10T08:49:45.260Z,1822.50
2019-04-10T08:50:44.156Z,1856.25
2019-04-10T08:51:44.168Z,1861.88
2019-04-10T08:52:44.527Z,1884.38
2019-04-10T08:53:44.591Z,1929.38
2019-04-10T08:54:44.635Z,1923.75
2019-04-10T08:55:44.142Z,1923.75
2019-04-10T08:56:44.915Z,1873.12
2019-04-10T08:57:44.080Z,1906.88
2019-04-10T08:58:44.071Z,1901.25
2019-04-10T08:59:45.325Z,1884.38
2019-04-10T09:00:44.854Z,1946.25
2019-04-10T09:01:45.172Z,1974.38
2019-04-10T09:02:44.442Z,1912.50
2019-04-10T09:03:44.018Z,1873.12
2019-04-10T09:04:44.700Z,1856.25
2019-04-10T09:05:44.895Z,1884.38
2019-04-10T09:06:44.021Z,1968.75
2019-04-10T09:07:44.278Z,1918.12
2019-04-10T09:08:43.963Z,1923.75
2019-04-10T09:09:43.956Z,2008.12
2019-04-10T09:10:44.795Z,1991.25
2019-04-10T09:11:44.893Z,1991.25
2019-04-10T09:12:44.923Z,1980.00
2019-04-10T09:13:44.428Z,2030.62
2019-04-10T09:14:43.911Z,2058.75
2019-04-10T09:15:43.892Z,2019.38
2019-04-10T09:16:44.833Z,2086.88
2019-04-10T09:17:43.885Z,2019.38
2019-04-10T09:18:43.859Z,2041.88
2019-04-10T09:19:44.362Z,2086.88
2019-04-10T09:20:43.839Z,2013.75
2019-04-10T09:21:43.854Z,2070.00
2019-04-10T09:23:08.539Z,2126.25
2019-04-10T09:23:51.756Z,2109.38
2019-04-10T09:24:44.796Z,2143.12
2019-04-10T09:25:43.824Z,2064.38
2019-04-10T09:26:44.532Z,1963.12
2019-04-10T09:27:44.222Z,2036.25
2019-04-10T09:28:43.756Z,2075.62
2019-04-10T09:29:44.530Z,2092.50
2019-04-10T09:30:44.826Z,2171.25
2019-04-10T09:31:43.999Z,2143.12
2019-04-10T09:32:44.403Z,2188.12
2019-04-10T09:33:43.705Z,2238.75
2019-04-10T09:34:45.616Z,2160.00
2019-04-10T09:35:44.692Z,2188.12
2019-04-10T09:36:43.795Z,2266.88
2019-04-10T09:37:43.668Z,2227.50
2019-04-10T09:38:44.120Z,2137.50
2019-04-10T09:39:43.645Z,2210.62
2019-04-10T09:40:44.649Z,2160.00
2019-04-10T09:41:43.937Z,2188.12
2019-04-10T09:42:43.845Z,2205.00
2019-04-10T09:43:43.604Z,2148.75
2019-04-10T09:44:44.385Z,2216.25
2019-04-10T09:45:43.794Z,2176.88
2019-04-10T09:46:43.596Z,2216.25
2019-04-10T09:47:43.892Z,2306.25
2019-04-10T09:48:44.258Z,2261.25
2019-04-10T09:49:46.233Z,2250.00
2019-04-10T09:50:43.903Z,2306.25
2019-04-10T09:51:43.541Z,2278.12
2019-04-10T09:52:44.050Z,2216.25
2019-04-10T09:53:43.495Z,2193.75
2019-04-10T09:54:43.638Z,2311.88
2019-04-10T09:55:43.478Z,2340.00
2019-04-10T09:56:44.210Z,2250.00
2019-04-10T09:57:43.452Z,2233.12
2019-04-10T09:58:43.446Z,2300.62
2019-04-10T09:59:43.435Z,2306.25
2019-04-10T10:00:43.793Z,2295.00
2019-04-10T10:01:44.470Z,2351.25
2019-04-10T10:02:43.401Z,2340.00
2019-04-10T10:03:44.419Z,2390.62
2019-04-10T10:04:43.872Z,2351.25
2019-04-10T10:05:44.528Z,2430.00
2019-04-10T10:06:43.385Z,2458.12
2019-04-10T10:07:43.351Z,2503.12
2019-04-10T10:08:43.661Z,2520.00
2019-04-10T10:09:43.325Z,810.00
2019-04-10T10:10:43.322Z,2435.62
2019-04-10T10:11:43.331Z,2328.75
2019-04-10T10:12:43.300Z,2356.88
2019-04-10T10:13:43.287Z,2548.12
2019-04-10T10:14:44.283Z,1198.12
2019-04-10T10:15:43.265Z,1175.62
2019-04-10T10:16:44.206Z,2846.25
2019-04-10T10:17:43.241Z,2851.88
2019-04-10T10:18:43.662Z,2857.50
2019-04-10T10:19:43.218Z,2728.12
2019-04-10T10:20:43.960Z,849.38
2019-04-10T10:21:43.229Z,832.50
2019-04-10T10:22:43.293Z,843.75
2019-04-10T10:23:43.679Z,1327.50
2019-04-10T10:24:43.170Z,2576.25
2019-04-10T10:25:43.659Z,2548.12
2019-04-10T10:26:45.015Z,2666.25
2019-04-10T10:27:43.140Z,2722.50
2019-04-10T10:28:43.125Z,2818.12
2019-04-10T10:29:44.093Z,1440.00
2019-04-10T10:30:43.961Z,2385.00
2019-04-10T10:31:43.125Z,2047.50
2019-04-10T10:32:43.781Z,2896.88
2019-04-10T10:33:43.075Z,2818.12
2019-04-10T10:34:43.065Z,2846.25
2019-04-10T10:35:43.222Z,2840.62
2019-04-10T10:36:46.207Z,815.62
2019-04-10T10:37:43.034Z,742.50
2019-04-10T10:38:43.373Z,753.75
2019-04-10T10:39:43.138Z,832.50
2019-04-10T10:40:43.644Z,2790.00
2019-04-10T10:41:43.028Z,2728.12
2019-04-10T10:42:43.523Z,2660.62
2019-04-10T10:43:42.966Z,2604.38
2019-04-10T10:44:42.956Z,2660.62
2019-04-10T10:45:43.011Z,2671.88
2019-04-10T10:46:43.934Z,2801.25
2019-04-10T10:47:42.958Z,2874.38
2019-04-10T10:48:44.091Z,2925.00
2019-04-10T10:49:42.904Z,2823.75
2019-04-10T10:50:43.590Z,2711.25
2019-04-10T10:51:42.890Z,2790.00
2019-04-10T10:52:43.815Z,2790.00
2019-04-10T10:53:42.885Z,2795.62
2019-04-10T10:54:43.253Z,2739.38
2019-04-10T10:55:42.843Z,2615.62
2019-04-10T10:56:42.833Z,2626.88
2019-04-10T10:57:43.582Z,2677.50
2019-04-10T10:58:43.885Z,2638.12
2019-04-10T10:59:43.859Z,2610.00
2019-04-10T11:00:43.170Z,2621.25
2019-04-10T11:01:42.784Z,2660.62
2019-04-10T11:02:43.646Z,2683.12
2019-04-10T11:03:42.764Z,2666.25
2019-04-10T11:04:43.350Z,1141.88
2019-04-10T11:05:42.742Z,1625.62
2019-04-10T11:06:51.439Z,928.12
2019-04-10T11:07:43.750Z,2705.62
2019-04-10T11:08:43.817Z,2868.75
2019-04-10T11:09:42.696Z,2880.00
2019-04-10T11:10:43.236Z,2913.75
2019-04-10T11:11:42.679Z,2857.50
2019-04-10T11:12:42.700Z,2835.00
2019-04-10T11:13:43.196Z,2733.75
2019-04-10T11:14:43.664Z,2705.62
2019-04-10T11:15:45.525Z,2790.00
2019-04-10T11:16:42.627Z,2784.38
2019-04-10T11:17:42.639Z,2767.50
2019-04-10T11:18:42.611Z,2745.00
2019-04-10T11:19:43.435Z,2835.00
2019-04-10T11:20:43.913Z,2761.88
2019-04-10T11:21:42.970Z,2728.12
2019-04-10T11:22:42.594Z,2784.38
2019-04-10T11:23:42.559Z,2666.25
2019-04-10T11:24:43.430Z,2643.75
2019-04-10T11:25:42.538Z,2649.38
2019-04-10T11:26:42.769Z,2666.25
2019-04-10T11:27:42.577Z,2891.25
2019-04-10T11:28:43.231Z,1760.62
2019-04-10T11:29:42.699Z,3133.12
2019-04-10T11:30:42.623Z,2390.62
2019-04-10T11:31:42.478Z,1440.00
2019-04-10T11:32:52.498Z,2880.00
2019-04-10T11:33:43.855Z,2925.00
2019-04-10T11:34:43.505Z,2930.62
2019-04-10T11:35:43.951Z,2857.50
2019-04-10T11:36:42.933Z,2722.50
2019-04-10T11:37:46.867Z,2835.00
2019-04-10T11:38:44.935Z,2806.88
2019-04-10T11:39:43.889Z,2750.62
2019-04-10T11:40:42.407Z,2863.12
2019-04-10T11:41:43.373Z,2975.62
2019-04-10T11:42:42.915Z,3048.75
2019-04-10T11:43:45.024Z,3054.38
2019-04-10T11:44:45.299Z,3054.38
2019-04-10T11:45:46.538Z,1411.88
2019-04-10T11:46:43.894Z,1451.25
2019-04-10T11:47:42.594Z,1333.12
2019-04-10T11:48:45.489Z,2317.50
2019-04-10T11:49:44.391Z,3273.75
2019-04-10T11:50:44.042Z,1327.50
2019-04-10T11:51:45.302Z,1226.25
2019-04-10T11:52:49.321Z,1063.12
2019-04-10T11:53:45.387Z,1141.88
2019-04-10T11:54:46.002Z,1096.88
2019-04-10T11:56:45.720Z,2756.25
2019-04-10T11:57:45.937Z,2745.00
2019-04-10T11:58:49.509Z,2795.62
2019-04-10T11:59:44.852Z,2823.75
2019-04-10T12:01:44.829Z,2604.38
2019-04-10T12:02:45.440Z,2761.88
2019-04-10T12:03:48.223Z,2818.12
2019-04-10T12:04:50.350Z,2835.00
2019-04-10T12:05:43.761Z,1018.12
2019-04-10T12:06:43.151Z,1136.25
2019-04-10T12:09:08.366Z,1811.25
2019-04-10T12:11:43.094Z,1468.12
2019-04-10T12:12:42.099Z,1147.50
2019-04-10T12:13:42.729Z,1074.38
2019-04-10T12:14:42.064Z,984.38
2019-04-10T12:15:43.063Z,916.88
2019-04-10T12:16:42.129Z,849.38
2019-04-10T12:17:43.090Z,793.12
2019-04-10T12:18:42.542Z,731.25
2019-04-10T12:19:42.481Z,787.50
2019-04-10T12:20:43.081Z,1175.62
2019-04-10T12:21:42.146Z,2728.12
2019-04-10T12:22:41.998Z,2733.75
2019-04-10T12:23:42.967Z,2711.25
2019-04-10T12:24:42.614Z,2666.25
2019-04-10T12:25:42.891Z,2638.12
2019-04-10T12:26:42.340Z,2767.50
2019-04-10T12:27:42.096Z,2868.75
2019-04-10T12:28:42.308Z,2756.25
2019-04-10T12:29:42.606Z,1338.75
2019-04-10T12:30:41.885Z,1389.38
2019-04-10T12:31:41.979Z,2148.75
2019-04-10T12:32:42.985Z,2846.25
2019-04-10T12:33:42.430Z,3060.00
2019-04-10T12:34:42.465Z,3099.38
2019-04-10T12:35:42.353Z,3031.88
2019-04-10T12:36:42.711Z,2964.38
2019-04-10T12:37:41.840Z,1158.75
2019-04-10T12:38:41.804Z,1063.12
2019-04-10T12:39:41.795Z,1057.50
2019-04-10T12:40:42.599Z,1856.25
2019-04-10T12:41:41.769Z,2773.12
2019-04-10T12:42:41.793Z,2683.12